Time;durP1;ratioP1;P1;durP2;ratioP2;P2;SDS_P1;SDS_P2;PMS_P1;PMS_P2;Temp;Humidity;BMP_temperature;BMP_pressure;BME280_temperature;BME280_humidity;BME280_pressure;Samples;Min_cycle;Max_cycle;Signal;HPM_P1;HPM_P2
2024/04/14 00:01:50;;;;;;;4.83;3.90;;;;;;;18.29;49.03;94960.25;5528115;25;20342;-64
2024/04/14 00:04:15;;;;;;;6.10;3.63;;;;;;;18.23;48.98;94945.81;5528117;25;20223;-64
2024/04/14 00:06:41;;;;;;;6.43;4.20;;;;;;;18.25;49.99;94956.84;5528195;25;20437;-63
2024/04/14 00:09:06;;;;;;;4.20;3.43;;;;;;;18.28;49.03;94950.75;5527849;25;20578;-64
2024/04/14 00:11:32;;;;;;;7.47;4.30;;;;;;;18.28;48.90;94950.00;5528134;25;20214;-64
2024/04/14 00:13:57;;;;;;;6.67;4.40;;;;;;;18.24;49.48;94954.56;5528117;25;20223;-63
2024/04/14 00:16:22;;;;;;;6.27;3.73;;;;;;;18.20;49.04;94948.47;5528253;25;20217;-62
2024/04/14 00:18:48;;;;;;;7.53;3.97;;;;;;;18.15;48.93;94946.22;5528020;25;20215;-62
2024/04/14 00:21:13;;;;;;;9.30;3.93;;;;;;;18.09;49.81;94933.28;5528097;25;20266;-64
2024/04/14 00:23:39;;;;;;;6.90;3.73;;;;;;;18.11;49.38;94932.91;5527973;25;20251;-64
2024/04/14 00:26:07;;;;;;;5.70;3.77;;;;;;;18.07;49.48;94934.81;5527886;25;20267;-63
2024/04/14 00:28:33;;;;;;;6.90;3.90;;;;;;;18.03;49.74;94926.84;5527548;25;20231;-62
2024/04/14 00:30:58;;;;;;;6.20;4.23;;;;;;;18.12;49.92;94932.53;5527732;25;20496;-62
2024/04/14 00:33:24;;;;;;;5.07;3.80;;;;;;;18.02;49.48;94917.34;5527641;25;20681;-64
2024/04/14 00:35:49;;;;;;;4.93;3.53;;;;;;;18.07;50.21;94929.50;5527852;25;20220;-63
2024/04/14 00:38:14;;;;;;;7.70;4.30;;;;;;;18.15;49.30;94946.97;5525796;25;20220;-62
2024/04/14 00:40:40;;;;;;;5.00;3.20;;;;;;;17.94;49.60;94920.41;5527465;25;20228;-63
2024/04/14 00:43:05;;;;;;;8.80;3.67;;;;;;;18.08;49.84;94931.03;5525825;26;20223;-62
2024/04/14 00:45:31;;;;;;;5.57;3.60;;;;;;;18.01;50.06;94933.69;5527540;25;20215;-64
2024/04/14 00:47:56;;;;;;;5.83;3.53;;;;;;;17.97;49.47;94911.66;5527472;25;20593;-62
2024/04/14 00:50:23;;;;;;;3.90;3.30;;;;;;;18.00;49.55;94924.19;5527484;25;20213;-63
2024/04/14 00:52:49;;;;;;;5.80;3.13;;;;;;;17.95;50.28;94919.28;5525581;26;20224;-62
2024/04/14 00:55:15;;;;;;;3.83;3.43;;;;;;;17.97;50.25;94927.63;5525393;26;20484;-64
2024/04/14 00:57:40;;;;;;;5.53;3.13;;;;;;;17.93;50.21;94930.31;5527324;25;20235;-63
2024/04/14 01:00:07;;;;;;;5.07;3.70;;;;;;;17.98;50.83;94931.81;5527277;25;20489;-64
2024/04/14 01:02:35;;;;;;;9.00;3.60;;;;;;;17.92;50.10;94912.06;5527269;25;20220;-64
2024/04/14 01:05:01;;;;;;;8.00;5.10;;;;;;;17.96;50.66;94934.09;5527199;25;20438;-64
2024/04/14 01:07:27;;;;;;;4.90;3.10;;;;;;;17.95;51.13;94944.00;5527155;25;21025;-63
2024/04/14 01:09:53;;;;;;;4.07;3.10;;;;;;;17.89;50.82;94912.81;5527547;25;21021;-63
2024/04/14 01:12:18;;;;;;;5.03;3.00;;;;;;;17.94;50.43;94931.06;5526947;25;20561;-63
2024/04/14 01:14:44;;;;;;;7.07;3.57;;;;;;;17.93;50.78;94924.22;5527167;25;20437;-63
2024/04/14 01:17:09;;;;;;;3.60;3.03;;;;;;;17.87;51.04;94931.84;5527334;25;20598;-63
2024/04/14 01:19:34;;;;;;;4.60;3.50;;;;;;;17.85;50.23;94930.69;5525333;26;20251;-62
2024/04/14 01:22:00;;;;;;;9.03;3.87;;;;;;;17.85;51.38;94923.47;5524954;26;20246;-64
2024/04/14 01:24:25;;;;;;;6.20;3.50;;;;;;;17.78;49.93;94918.16;5524723;26;20219;-62
2024/04/14 01:26:51;;;;;;;4.17;2.70;;;;;;;17.78;51.26;94931.44;5526352;25;20254;-62
2024/04/14 01:29:17;;;;;;;7.03;3.10;;;;;;;17.77;51.23;94922.72;5526707;25;20259;-63
2024/04/14 01:31:43;;;;;;;6.30;3.57;;;;;;;17.76;51.50;94926.50;5526981;25;20382;-63
2024/04/14 01:34:08;;;;;;;9.30;4.60;;;;;;;17.76;51.29;94926.50;5526722;25;20512;-63
2024/04/14 01:36:33;;;;;;;5.27;3.33;;;;;;;17.64;51.15;94918.16;5527190;25;20215;-63
2024/04/14 01:38:59;;;;;;;4.97;3.60;;;;;;;17.70;52.44;94936.03;5526475;25;20710;-63
2024/04/14 01:41:25;;;;;;;4.00;3.37;;;;;;;17.66;51.65;94927.25;5527404;25;20225;-63
2024/04/14 01:43:50;;;;;;;6.83;3.43;;;;;;;17.61;51.53;94935.63;5527417;25;20528;-63
2024/04/14 01:46:16;;;;;;;5.03;3.30;;;;;;;17.56;52.30;94935.25;5527601;25;20548;-63
2024/04/14 01:48:41;;;;;;;10.30;3.83;;;;;;;17.49;53.07;94933.38;5527262;25;20210;-62
2024/04/14 01:51:07;;;;;;;5.40;3.70;;;;;;;17.37;53.82;94926.50;5526853;25;20265;-64
2024/04/14 01:53:32;;;;;;;8.03;4.27;;;;;;;17.27;52.77;94923.88;5524553;26;20222;-64
2024/04/14 01:55:59;;;;;;;6.10;4.27;;;;;;;17.21;52.73;94920.06;5526027;25;20247;-63
2024/04/14 01:58:26;;;;;;;6.87;4.30;;;;;;;17.25;54.00;94944.75;5524632;25;20636;-62
2024/04/14 02:00:51;;;;;;;5.73;4.40;;;;;;;17.16;53.90;94932.59;5524410;26;20435;-64
2024/04/14 02:03:17;;;;;;;6.47;3.77;;;;;;;17.10;54.38;94928.03;5525953;25;20536;-63
2024/04/14 02:05:42;;;;;;;4.47;3.50;;;;;;;17.14;54.88;94934.88;5526494;25;20207;-63
2024/04/14 02:08:08;;;;;;;5.30;4.07;;;;;;;17.01;55.12;94915.09;5524445;26;20269;-63
2024/04/14 02:10:39;;;;;;;7.13;4.40;;;;;;;17.09;55.01;94931.81;5526227;25;20215;-63
2024/04/14 02:13:04;;;;;;;8.23;4.90;;;;;;;16.93;54.83;94923.44;5524400;25;20611;-63
2024/04/14 02:15:29;;;;;;;4.70;4.23;;;;;;;16.96;55.24;94943.94;5526104;25;20499;-62
2024/04/14 02:17:55;;;;;;;12.93;4.83;;;;;;;16.97;55.99;94950.78;5526235;25;20260;-63
2024/04/14 02:20:20;;;;;;;11.90;5.53;;;;;;;16.75;56.70;94934.81;5526702;25;20264;-62
2024/04/14 02:22:45;;;;;;;11.33;6.23;;;;;;;16.74;56.06;94935.94;5526083;25;20259;-64
2024/04/14 02:25:11;;;;;;;11.90;6.63;;;;;;;16.62;57.21;94943.44;5523499;26;20237;-64
2024/04/14 02:27:36;;;;;;;13.30;7.07;;;;;;;16.51;57.32;94930.13;5526425;25;20261;-63
2024/04/14 02:30:02;;;;;;;9.60;6.73;;;;;;;16.41;57.17;94936.94;5524265;26;20705;-62
2024/04/14 02:32:27;;;;;;;12.37;7.10;;;;;;;16.40;58.10;94942.63;5524728;26;20226;-62
2024/04/14 02:34:52;;;;;;;10.20;6.30;;;;;;;16.39;58.58;94955.13;5526207;25;20541;-62
2024/04/14 02:37:18;;;;;;;9.40;8.00;;;;;;;16.39;58.23;94946.41;5526048;25;20611;-63
2024/04/14 02:39:44;;;;;;;11.30;7.07;;;;;;;16.33;58.02;94940.69;5527368;25;20230;-63
2024/04/14 02:42:09;;;;;;;12.50;6.80;;;;;;;16.28;58.88;94935.72;5529529;25;20215;-64
2024/04/14 02:44:34;;;;;;;12.97;7.83;;;;;;;16.24;58.77;94932.31;5528021;25;20753;-62
2024/04/14 02:47:00;;;;;;;13.17;8.30;;;;;;;16.24;58.63;94943.69;5529198;25;20213;-63
2024/04/14 02:49:28;;;;;;;9.23;7.47;;;;;;;16.15;58.61;94943.25;5527497;26;20305;-64
2024/04/14 02:51:53;;;;;;;9.70;7.83;;;;;;;16.07;59.79;94933.00;5527517;25;20231;-64
2024/04/14 02:54:19;;;;;;;9.60;7.93;;;;;;;16.06;59.84;94920.84;5528411;25;20774;-62
2024/04/14 02:56:44;;;;;;;12.17;8.00;;;;;;;15.96;60.39;94914.34;5528642;25;20307;-63
2024/04/14 02:59:09;;;;;;;9.77;7.10;;;;;;;15.99;60.91;94928.78;5526828;25;20221;-63
2024/04/14 03:01:35;;;;;;;13.10;7.90;;;;;;;15.99;60.90;94931.44;5529336;25;20257;-64
2024/04/14 03:04:00;;;;;;;8.53;7.30;;;;;;;15.93;60.60;94942.38;5527226;26;20214;-64
2024/04/14 03:06:26;;;;;;;7.83;7.03;;;;;;;15.83;60.62;94924.50;5529322;25;20214;-62
2024/04/14 03:08:51;;;;;;;8.77;7.80;;;;;;;15.82;61.19;94941.56;5528501;25;20221;-63
2024/04/14 03:11:16;;;;;;;10.10;8.43;;;;;;;15.82;61.07;94938.13;5529064;25;20265;-64
2024/04/14 03:13:42;;;;;;;13.70;8.47;;;;;;;15.76;61.17;94945.69;5528834;25;20233;-64
2024/04/14 03:16:07;;;;;;;8.63;7.73;;;;;;;15.76;61.19;94955.53;5529117;25;20308;-64
2024/04/14 03:18:34;;;;;;;9.77;8.47;;;;;;;15.69;62.33;94958.91;5526934;26;20216;-63
2024/04/14 03:21:03;;;;;;;13.10;9.03;;;;;;;15.59;62.67;94935.72;5528745;25;20240;-63
2024/04/14 03:23:29;;;;;;;10.00;7.90;;;;;;;15.54;62.63;94938.69;5528691;25;20780;-63
2024/04/14 03:25:55;;;;;;;12.57;8.60;;;;;;;15.52;62.76;94967.44;5528639;25;20551;-65
2024/04/14 03:28:26;;;;;;;11.73;8.50;;;;;;;15.52;62.89;94943.59;5528791;25;20528;-62
2024/04/14 03:30:52;;;;;;;20.80;9.57;;;;;;;15.53;62.60;94950.41;5528552;25;20501;-63
2024/04/14 03:33:18;;;;;;;9.50;7.80;;;;;;;15.51;63.20;94950.03;5526702;26;20838;-62
2024/04/14 03:35:44;;;;;;;15.03;8.73;;;;;;;15.51;63.03;94940.19;5528249;25;20536;-63
2024/04/14 03:38:10;;;;;;;9.87;8.40;;;;;;;15.44;63.00;94949.97;5528944;25;20476;-62
2024/04/14 03:40:35;;;;;;;9.70;7.93;;;;;;;15.38;63.42;94952.19;5528338;25;20446;-62
2024/04/14 03:43:00;;;;;;;13.03;8.37;;;;;;;15.36;63.57;94964.31;5526751;25;20301;-63
2024/04/14 03:45:26;;;;;;;12.60;8.00;;;;;;;15.35;63.74;94968.09;5528384;25;20226;-64
2024/04/14 03:47:52;;;;;;;10.17;8.33;;;;;;;15.21;63.23;94947.50;5528664;25;20210;-62
2024/04/14 03:50:18;;;;;;;11.10;8.37;;;;;;;15.25;64.12;94954.38;5528176;25;20265;-63
2024/04/14 03:52:44;;;;;;;9.07;8.27;;;;;;;15.24;63.79;94968.00;5528496;25;20575;-64
2024/04/14 03:55:09;;;;;;;10.20;8.20;;;;;;;15.20;64.91;94969.81;5528123;25;20429;-63
2024/04/14 03:57:34;;;;;;;11.73;8.97;;;;;;;15.12;64.60;94958.41;5527659;25;20272;-62
2024/04/14 04:00:00;;;;;;;9.40;8.37;;;;;;;15.08;64.74;94965.56;5525982;25;20308;-63
2024/04/14 04:02:25;;;;;;;9.50;8.57;;;;;;;14.94;64.33;94950.31;5528236;25;20740;-62
2024/04/14 04:04:50;;;;;;;11.83;9.10;;;;;;;15.00;64.98;94962.09;5527642;25;20217;-64
2024/04/14 04:07:16;;;;;;;13.90;8.50;;;;;;;14.86;64.44;94937.31;5527914;25;20530;-63
2024/04/14 04:09:41;;;;;;;9.27;8.30;;;;;;;14.93;65.05;94948.00;5527727;25;20382;-63
2024/04/14 04:12:07;;;;;;;13.27;8.70;;;;;;;14.95;65.03;94962.41;5527471;25;20679;-64
2024/04/14 04:14:32;;;;;;;11.37;8.50;;;;;;;15.07;64.27;94953.44;5525518;26;20693;-63
2024/04/14 04:16:58;;;;;;;10.10;7.70;;;;;;;15.18;63.90;94967.53;5526217;26;20657;-64
2024/04/14 04:19:23;;;;;;;11.40;8.33;;;;;;;15.18;64.72;94953.53;5527665;25;20327;-63
2024/04/14 04:21:49;;;;;;;14.20;8.23;;;;;;;15.17;64.59;94947.47;5528180;25;20553;-62
2024/04/14 04:24:14;;;;;;;12.43;8.33;;;;;;;15.04;64.95;94953.41;5527668;25;20251;-62
2024/04/14 04:26:39;;;;;;;12.80;8.63;;;;;;;14.99;64.79;94962.44;5527948;25;20229;-63
2024/04/14 04:29:05;;;;;;;8.63;7.43;;;;;;;15.03;63.93;94963.25;5527831;25;20592;-64
2024/04/14 04:31:30;;;;;;;13.60;7.70;;;;;;;15.05;64.29;94970.84;5528090;25;20210;-64
2024/04/14 04:33:56;;;;;;;10.97;7.70;;;;;;;15.02;65.01;94977.63;5527791;25;20220;-64
2024/04/14 04:36:21;;;;;;;17.70;8.27;;;;;;;15.04;64.14;94996.56;5528118;25;20225;-63
2024/04/14 04:38:46;;;;;;;13.43;7.67;;;;;;;15.12;64.01;94982.25;5527536;25;20210;-62
2024/04/14 04:41:12;;;;;;;11.10;7.83;;;;;;;15.18;64.22;94991.41;5527482;25;20237;-65
2024/04/14 04:43:42;;;;;;;13.60;8.43;;;;;;;15.22;64.82;94983.47;5527775;25;20704;-62
2024/04/14 04:46:07;;;;;;;10.30;8.03;;;;;;;15.21;64.81;94974.00;5527543;25;20269;-64
2024/04/14 04:48:32;;;;;;;13.97;8.67;;;;;;;15.32;64.67;94991.53;5527617;25;20434;-63
2024/04/14 04:50:58;;;;;;;10.80;8.77;;;;;;;15.32;64.41;94982.81;5527721;25;20209;-63
2024/04/14 04:53:23;;;;;;;10.90;8.80;;;;;;;15.30;64.37;94977.91;5525435;26;20563;-62
2024/04/14 04:55:49;;;;;;;14.40;8.57;;;;;;;15.42;64.83;94984.03;5527138;25;20229;-62
2024/04/14 04:58:15;;;;;;;10.27;9.17;;;;;;;15.49;64.95;94994.69;5527435;25;20725;-63
2024/04/14 05:00:50;;;;;;;11.20;9.37;;;;;;;15.51;64.66;94992.44;5527504;25;20426;-62
2024/04/14 05:03:15;;;;;;;11.57;9.00;;;;;;;15.53;64.41;95004.22;5526453;25;20205;-63
2024/04/14 05:05:41;;;;;;;11.73;9.03;;;;;;;15.59;64.94;94994.03;5527092;25;20442;-62
2024/04/14 05:08:06;;;;;;;9.03;8.13;;;;;;;15.65;64.23;94992.59;5526888;25;20217;-62
2024/04/14 05:10:32;;;;;;;12.97;8.30;;;;;;;15.62;64.70;94996.75;5527781;25;20214;-64
2024/04/14 05:12:57;;;;;;;10.80;8.73;;;;;;;15.67;63.10;95003.59;5526976;25;20221;-64
2024/04/14 05:15:22;;;;;;;13.77;8.03;;;;;;;15.72;63.40;95003.25;5526941;25;20242;-63
2024/04/14 05:17:48;;;;;;;13.83;9.70;;;;;;;15.78;63.55;95025.66;5527103;25;20252;-62
2024/04/14 05:20:13;;;;;;;14.23;9.40;;;;;;;15.91;62.72;95004.91;5527166;25;20687;-62
2024/04/14 05:22:38;;;;;;;10.53;9.43;;;;;;;15.93;62.66;95003.41;5527375;25;20252;-63
2024/04/14 05:25:04;;;;;;;12.47;9.70;;;;;;;15.98;62.28;95004.94;5525038;26;20226;-63
2024/04/14 05:27:29;;;;;;;10.93;8.90;;;;;;;16.06;62.11;94995.16;5526974;25;20253;-63
2024/04/14 05:29:55;;;;;;;15.63;9.77;;;;;;;16.14;61.68;94996.72;5527192;25;20322;-63
2024/04/14 05:32:20;;;;;;;15.33;11.40;;;;;;;16.12;62.00;94988.38;5526979;25;20241;-63
2024/04/14 05:34:49;;;;;;;13.60;10.23;;;;;;;16.24;61.36;94993.34;5527230;25;20211;-63
2024/04/14 05:37:14;;;;;;;13.70;9.63;;;;;;;16.25;61.95;95002.84;5524548;26;20261;-63
2024/04/14 05:39:40;;;;;;;17.70;9.07;;;;;;;16.30;60.27;94999.06;5526784;25;20452;-63
2024/04/14 05:42:05;;;;;;;9.77;8.80;;;;;;;16.13;61.53;95000.50;5526821;25;20268;-63
2024/04/14 05:44:33;;;;;;;12.60;9.13;;;;;;;16.12;61.41;94980.41;5525216;26;20229;-63
2024/04/14 05:46:58;;;;;;;14.60;9.17;;;;;;;16.28;61.91;95010.06;5526808;25;20313;-63
2024/04/14 05:49:24;;;;;;;15.00;8.67;;;;;;;16.34;60.59;95016.53;5525087;25;20440;-63
2024/04/14 05:51:50;;;;;;;12.40;8.80;;;;;;;16.42;60.02;95002.19;5526740;25;20218;-63
2024/04/14 05:54:15;;;;;;;13.50;7.97;;;;;;;16.49;60.53;94999.56;5526510;25;21109;-63
2024/04/14 05:56:41;;;;;;;18.37;8.03;;;;;;;16.56;59.79;95002.25;5526727;25;20711;-63
2024/04/14 05:59:06;;;;;;;12.07;7.77;;;;;;;16.67;59.16;95001.56;5526340;25;20218;-62
2024/04/14 06:01:32;;;;;;;10.67;8.23;;;;;;;16.73;59.53;95000.09;5526404;25;20535;-63
2024/04/14 06:03:57;;;;;;;14.17;8.13;;;;;;;16.82;58.48;94997.81;5526686;25;20688;-62
2024/04/14 06:06:22;;;;;;;11.67;7.80;;;;;;;16.87;57.64;94989.50;5526699;25;20322;-63
2024/04/14 06:08:48;;;;;;;9.87;7.80;;;;;;;17.01;57.60;95004.72;5526195;25;20546;-62
2024/04/14 06:11:13;;;;;;;9.50;8.50;;;;;;;17.07;57.88;95009.28;5526701;25;20228;-63
2024/04/14 06:13:38;;;;;;;11.80;8.07;;;;;;;16.94;58.42;94994.06;5526014;25;20755;-63
2024/04/14 06:16:04;;;;;;;11.67;7.70;;;;;;;17.11;58.14;95001.34;5526181;25;20323;-62
2024/04/14 06:18:33;;;;;;;12.93;7.80;;;;;;;17.21;57.36;94997.16;5526425;25;20211;-64
2024/04/14 06:20:58;;;;;;;9.00;7.50;;;;;;;17.26;57.24;94997.56;5526113;25;20215;-63
2024/04/14 06:23:24;;;;;;;7.57;6.77;;;;;;;17.35;57.26;94997.19;5524890;25;20433;-62
2024/04/14 06:25:49;;;;;;;10.03;7.50;;;;;;;17.39;55.80;94989.97;5524723;25;20212;-63
2024/04/14 06:28:16;;;;;;;10.50;7.17;;;;;;;17.48;55.97;94995.69;5524812;25;20560;-62
2024/04/14 06:30:41;;;;;;;8.53;7.30;;;;;;;17.47;56.34;94988.84;5524701;25;20612;-64
2024/04/14 06:33:07;;;;;;;10.67;7.30;;;;;;;17.61;56.27;94996.81;5523323;26;20479;-63
2024/04/14 06:35:32;;;;;;;8.20;6.10;;;;;;;17.67;55.23;94998.00;5524559;25;20224;-64
2024/04/14 06:37:59;;;;;;;7.47;6.60;;;;;;;17.69;55.42;94995.72;5524395;25;20208;-64
2024/04/14 06:40:25;;;;;;;12.47;6.20;;;;;;;17.83;55.54;94999.50;5524487;25;20275;-64
2024/04/14 06:42:50;;;;;;;10.50;6.37;;;;;;;17.78;55.73;94998.75;5524348;25;20466;-64
2024/04/14 06:45:15;;;;;;;8.77;7.17;;;;;;;17.87;54.94;94998.38;5524782;25;20247;-64
2024/04/14 06:47:41;;;;;;;9.50;7.50;;;;;;;17.77;57.03;95002.53;5522174;26;20316;-64
2024/04/14 06:50:07;;;;;;;9.13;7.10;;;;;;;17.92;56.14;94997.22;5522828;26;20216;-63
2024/04/14 06:52:33;;;;;;;10.43;7.17;;;;;;;17.90;56.06;94994.19;5524309;25;20287;-63
2024/04/14 06:54:58;;;;;;;9.60;6.87;;;;;;;18.02;56.02;94997.22;5524310;25;20468;-63
2024/04/14 06:57:23;;;;;;;8.55;7.05;;;;;;;17.89;56.06;94982.03;5522123;26;20749;-63
2024/04/14 06:59:49;;;;;;;10.70;6.97;;;;;;;18.17;55.13;95005.16;5524270;25;20217;-63
2024/04/14 07:02:14;;;;;;;8.33;7.40;;;;;;;18.27;55.40;94986.53;5524305;25;20214;-63
2024/04/14 07:04:40;;;;;;;11.50;7.37;;;;;;;18.27;55.29;94985.75;5524174;25;20214;-63
2024/04/14 07:07:05;;;;;;;9.80;7.40;;;;;;;18.15;54.28;94975.50;5524148;25;20217;-63
2024/04/14 07:09:30;;;;;;;12.13;7.30;;;;;;;18.22;55.62;94986.16;5523769;25;20804;-63
2024/04/14 07:11:56;;;;;;;11.30;7.37;;;;;;;18.40;54.18;94995.59;5524380;25;20216;-63
2024/04/14 07:14:22;;;;;;;8.10;7.10;;;;;;;18.40;53.56;94971.63;5523792;25;20225;-63
2024/04/14 07:16:47;;;;;;;14.23;7.00;;;;;;;18.56;53.77;94991.75;5524125;25;20470;-64
2024/04/14 07:19:12;;;;;;;15.57;7.63;;;;;;;18.63;54.18;94994.44;5523906;25;20316;-64
2024/04/14 07:21:41;;;;;;;11.00;6.70;;;;;;;18.63;54.00;94991.78;5523713;25;20325;-64
2024/04/14 07:24:06;;;;;;;10.40;6.73;;;;;;;18.56;54.57;94986.41;5523026;25;20636;-63
2024/04/14 07:26:33;;;;;;;11.27;6.43;;;;;;;18.65;53.73;94973.50;5526790;25;20435;-63
2024/04/14 07:28:58;;;;;;;7.00;5.60;;;;;;;18.85;52.91;94998.50;5527973;25;20221;-64
2024/04/14 07:31:24;;;;;;;9.57;6.60;;;;;;;18.81;52.41;94971.13;5525387;26;20449;-63
2024/04/14 07:33:56;;;;;;;11.73;7.57;;;;;;;18.89;53.33;94980.59;5528010;25;20210;-63
2024/04/14 07:36:21;;;;;;;12.53;6.10;;;;;;;19.04;51.60;95006.06;5526382;26;20214;-64
2024/04/14 07:38:47;;;;;;;8.47;6.10;;;;;;;19.06;53.14;94976.31;5526644;25;20430;-64
2024/04/14 07:41:12;;;;;;;7.90;5.67;;;;;;;19.16;52.75;94966.75;5524968;26;20237;-64
2024/04/14 07:43:37;;;;;;;11.63;5.70;;;;;;;19.11;52.56;94951.16;5526925;25;20256;-64
2024/04/14 07:46:03;;;;;;;8.90;4.60;;;;;;;19.36;51.26;94973.09;5525441;26;20309;-64
2024/04/14 07:48:28;;;;;;;6.70;4.60;;;;;;;19.38;50.53;94968.13;5526831;25;20267;-62
2024/04/14 07:50:54;;;;;;;7.40;4.70;;;;;;;19.41;52.22;94964.66;5526966;25;20262;-64
2024/04/14 07:53:19;;;;;;;10.50;5.63;;;;;;;19.54;50.85;94968.41;5526455;25;20291;-64
2024/04/14 07:55:45;;;;;;;10.40;4.90;;;;;;;19.52;51.34;94956.56;5525265;26;20623;-63
2024/04/14 07:58:10;;;;;;;8.53;5.27;;;;;;;19.78;51.01;94974.69;5525097;25;20229;-64
2024/04/14 08:00:35;;;;;;;5.33;4.70;;;;;;;19.68;50.79;94973.63;5525309;25;20560;-64
2024/04/14 08:03:01;;;;;;;7.90;4.70;;;;;;;19.79;51.00;94972.78;5527398;25;20584;-63
2024/04/14 08:05:26;;;;;;;7.97;5.27;;;;;;;19.91;49.83;94969.63;5526464;25;20238;-64
2024/04/14 08:07:51;;;;;;;5.70;4.70;;;;;;;20.08;49.65;94971.38;5526243;25;20357;-64
2024/04/14 08:10:17;;;;;;;12.27;4.50;;;;;;;20.18;49.68;94970.50;5526497;25;20474;-64
2024/04/14 08:12:42;;;;;;;9.03;5.43;;;;;;;20.17;48.99;94977.00;5526868;25;20215;-63
2024/04/14 08:15:07;;;;;;;7.80;5.30;;;;;;;20.11;49.69;94973.25;5526321;25;20751;-64
2024/04/14 08:17:33;;;;;;;6.27;4.67;;;;;;;20.33;49.54;94970.34;5526547;25;20229;-64
2024/04/14 08:19:58;;;;;;;9.87;4.93;;;;;;;20.22;49.76;94963.22;5526741;25;20740;-64
2024/04/14 08:22:24;;;;;;;10.07;4.90;;;;;;;20.28;49.74;94977.66;5526137;25;20224;-63
2024/04/14 08:24:49;;;;;;;7.33;4.50;;;;;;;20.45;49.88;94984.00;5526307;25;20229;-64
2024/04/14 08:27:15;;;;;;;9.60;4.33;;;;;;;20.65;49.47;94964.69;5526359;25;20251;-63
2024/04/14 08:29:40;;;;;;;6.00;4.67;;;;;;;20.52;49.13;94964.44;5526616;25;20217;-64
2024/04/14 08:32:06;;;;;;;8.23;4.37;;;;;;;20.59;48.46;94953.66;5526303;25;20217;-64
2024/04/14 08:34:31;;;;;;;7.70;3.70;;;;;;;20.63;48.21;94951.72;5526471;25;20244;-63
2024/04/14 08:36:57;;;;;;;10.43;4.67;;;;;;;20.65;48.32;94965.44;5522881;26;20253;-63
2024/04/14 08:39:22;;;;;;;13.43;4.17;;;;;;;20.78;49.10;94966.41;5525924;25;20337;-63
2024/04/14 08:41:48;;;;;;;8.07;4.40;;;;;;;20.94;48.09;94963.16;5524535;25;20236;-63
2024/04/14 08:44:14;;;;;;;6.43;3.87;;;;;;;21.02;48.14;94969.16;5526155;25;20225;-63
2024/04/14 08:46:45;;;;;;;9.63;4.00;;;;;;;21.14;47.11;94960.59;5526640;25;20479;-63
2024/04/14 08:49:13;;;;;;;15.10;4.97;;;;;;;21.21;47.07;94968.53;5526180;25;20260;-64
2024/04/14 08:51:38;;;;;;;7.77;4.13;;;;;;;21.26;46.78;94962.75;5524211;25;20492;-62
2024/04/14 08:54:04;;;;;;;12.00;4.30;;;;;;;21.29;47.40;94961.19;5526055;25;20434;-64
2024/04/14 08:56:34;;;;;;;5.63;4.27;;;;;;;21.24;47.20;94957.03;5526639;25;20584;-64
2024/04/14 08:59:09;;;;;;;8.73;4.00;;;;;;;21.35;46.87;94948.84;5524102;26;20265;-64
2024/04/14 09:01:35;;;;;;;7.60;4.23;;;;;;;21.41;46.53;94947.97;5526051;25;20961;-64
2024/04/14 09:04:04;;;;;;;7.20;4.00;;;;;;;21.55;46.67;94955.03;5523969;25;20473;-63
2024/04/14 09:06:32;;;;;;;5.37;4.00;;;;;;;21.40;46.06;94938.44;5525368;25;20682;-64
2024/04/14 09:08:57;;;;;;;9.10;4.00;;;;;;;21.28;46.05;94933.66;5524171;25;20476;-64
2024/04/14 09:11:23;;;;;;;7.60;4.57;;;;;;;21.63;46.52;94950.34;5523881;26;20790;-64
2024/04/14 09:13:50;;;;;;;5.30;3.60;;;;;;;21.81;45.41;94945.44;5525581;25;20277;-62
2024/04/14 09:16:17;;;;;;;5.30;4.27;;;;;;;21.93;45.65;94933.34;5526057;25;20226;-63
2024/04/14 09:18:43;;;;;;;6.87;3.37;;;;;;;21.98;45.58;94933.66;5525842;25;20465;-63
2024/04/14 09:21:08;;;;;;;7.47;3.60;;;;;;;22.13;45.34;94929.56;5526470;25;20504;-64
2024/04/14 09:23:33;;;;;;;5.37;3.70;;;;;;;22.28;44.61;94934.66;5526738;25;20217;-63
2024/04/14 09:26:02;;;;;;;4.63;3.03;;;;;;;22.39;44.24;94945.97;5525426;25;20612;-63
2024/04/14 09:28:27;;;;;;;4.13;3.40;;;;;;;22.44;43.21;94930.13;5525337;25;20207;-63
2024/04/14 09:30:53;;;;;;;5.67;3.20;;;;;;;22.57;42.74;94922.22;5524046;26;20468;-63
2024/04/14 09:33:19;;;;;;;4.53;3.10;;;;;;;22.64;42.07;94918.63;5525514;25;20323;-65
2024/04/14 09:35:48;;;;;;;4.40;3.67;;;;;;;22.35;41.75;94921.91;5524871;25;20438;-65
2024/04/14 09:38:17;;;;;;;6.50;3.43;;;;;;;22.45;43.41;94920.16;5525268;25;20221;-63
2024/04/14 09:40:43;;;;;;;7.93;4.17;;;;;;;22.60;42.68;94916.03;5525717;25;20797;-64
2024/04/14 09:43:10;;;;;;;4.30;3.57;;;;;;;22.70;42.99;94928.47;5525405;25;20489;-63
2024/04/14 09:45:36;;;;;;;5.00;3.83;;;;;;;22.77;42.69;94908.78;5525922;25;20431;-63
2024/04/14 09:48:02;;;;;;;7.57;3.87;;;;;;;22.94;41.76;94907.66;5524729;25;20551;-64
2024/04/14 09:50:34;;;;;;;5.83;3.80;;;;;;;23.04;41.12;94901.31;5523135;25;20976;-64
2024/04/14 09:52:59;;;;;;;8.13;3.37;;;;;;;23.10;41.74;94898.91;5523545;25;20569;-64
2024/04/14 09:55:25;;;;;;;4.73;3.67;;;;;;;23.20;41.05;94903.25;5525519;25;20426;-64
2024/04/14 09:57:51;;;;;;;5.33;3.20;;;;;;;23.17;41.16;94871.88;5524750;25;20549;-65
2024/04/14 10:00:17;;;;;;;5.33;3.50;;;;;;;23.44;40.09;94889.69;5524988;25;20258;-64
2024/04/14 10:02:59;;;;;;;9.53;3.87;;;;;;;23.56;41.04;94897.06;5525167;25;20209;-63
2024/04/14 10:05:26;;;;;;;4.07;2.67;;;;;;;23.66;40.00;94891.44;5522993;25;20505;-64
2024/04/14 10:07:52;;;;;;;5.20;3.10;;;;;;;23.72;38.76;94891.66;5523210;25;20572;-64
2024/04/14 10:10:19;;;;;;;3.67;3.10;;;;;;;23.80;38.20;94890.31;5524755;25;20444;-64
2024/04/14 10:12:45;;;;;;;4.90;3.37;;;;;;;23.80;38.50;94862.69;5524871;25;20213;-64
2024/04/14 10:15:13;;;;;;;9.13;3.27;;;;;;;23.83;37.97;94880.66;5522753;26;20458;-64
2024/04/14 10:17:39;;;;;;;4.53;3.27;;;;;;;24.05;38.59;94873.53;5524591;25;20774;-64
2024/04/14 10:20:11;;;;;;;5.43;3.00;;;;;;;24.25;38.08;94876.06;5523001;26;20546;-64
2024/04/14 10:22:39;;;;;;;4.20;2.80;;;;;;;24.31;37.24;94866.31;5523173;26;20244;-64
2024/04/14 10:25:04;;;;;;;3.60;2.87;;;;;;;24.33;36.73;94855.13;5524647;25;20438;-64
2024/04/14 10:27:36;;;;;;;5.80;3.20;;;;;;;24.35;37.00;94864.28;5525127;25;20433;-64
2024/04/14 10:30:03;;;;;;;6.20;2.83;;;;;;;23.82;37.71;94850.34;5522990;26;20280;-64
2024/04/14 10:32:29;;;;;;;7.33;3.20;;;;;;;24.15;37.24;94871.72;5525118;25;20433;-64
2024/04/14 10:34:54;;;;;;;4.63;3.00;;;;;;;24.35;37.42;94832.00;5524350;25;20489;-64
2024/04/14 10:37:24;;;;;;;14.83;3.10;;;;;;;24.56;36.48;94830.66;5524358;25;20217;-64
2024/04/14 10:39:51;;;;;;;5.70;3.23;;;;;;;24.70;35.41;94832.16;5524296;25;20229;-63
2024/04/14 10:42:17;;;;;;;6.03;3.00;;;;;;;24.96;36.82;94839.03;5524327;25;20494;-63
2024/04/14 10:44:43;;;;;;;6.63;2.80;;;;;;;25.10;35.63;94833.22;5523845;25;20480;-63
2024/04/14 10:47:09;;;;;;;5.50;3.07;;;;;;;25.02;34.61;94834.66;5522320;26;20487;-63
2024/04/14 10:49:34;;;;;;;3.87;2.80;;;;;;;25.30;34.63;94832.25;5523985;25;20434;-64
2024/04/14 10:52:00;;;;;;;8.50;3.30;;;;;;;25.46;34.62;94829.38;5524313;25;20213;-63
2024/04/14 10:54:25;;;;;;;3.50;2.53;;;;;;;25.66;34.89;94821.81;5522433;26;20237;-63
2024/04/14 10:56:54;;;;;;;3.63;2.50;;;;;;;25.79;34.92;94817.13;5524107;25;20225;-64
2024/04/14 10:59:20;;;;;;;3.20;2.50;;;;;;;25.95;33.60;94823.50;5525834;25;20217;-64
2024/04/14 11:01:46;;;;;;;4.37;3.10;;;;;;;25.99;34.32;94807.94;5528205;25;20430;-64
2024/04/14 11:04:16;;;;;;;3.37;2.77;;;;;;;26.07;33.22;94807.28;5527594;25;20597;-64
2024/04/14 11:06:42;;;;;;;6.90;2.87;;;;;;;26.18;33.18;94809.59;5528075;25;20209;-64
2024/04/14 11:09:10;;;;;;;3.83;2.77;;;;;;;26.19;32.30;94813.78;5525905;25;20502;-63
2024/04/14 11:11:37;;;;;;;4.43;2.70;;;;;;;25.91;33.47;94815.53;5528307;25;20474;-64
2024/04/14 11:14:03;;;;;;;5.47;2.93;;;;;;;26.25;33.13;94806.63;5527051;25;20533;-63
2024/04/14 11:16:28;;;;;;;5.00;2.77;;;;;;;26.28;32.94;94794.94;5527682;25;20423;-64
2024/04/14 11:18:56;;;;;;;4.30;2.73;;;;;;;26.31;32.84;94782.53;5527150;25;20698;-64
2024/04/14 11:21:23;;;;;;;4.47;2.87;;;;;;;26.58;34.07;94795.41;5527845;25;20214;-63
2024/04/14 11:23:49;;;;;;;5.00;2.47;;;;;;;26.56;33.38;94787.00;5527525;25;20798;-64